Nancy Ann — WDH3524 — position and weather

sailwx.info

Track history (hours):
 
Tides and Currents Weather Stations Pressure Air Temp Water Temp Dewpoint Dewpoint Depression Visibility Wind Speed Wind Dir Waves Ship Positions

Nancy Ann

Owner: Mark Bernert Tugboat Company, St. Helens, OR. More information available from US FCC via Universal Licensing System and Coast Guard Vessel Documentation Center.

Last reported at 2018-Feb-22 22:36 UTC. Time now 2018-Feb-23 03:11 UTC.
Position N 45°48' W 122°51'.

Type: Tug. MMSI: 338205428.

Date/timePositionNaut miles runAvg speedWind from/ knotsBaromVisibWave heightAir tempDewpointWater temp
2018-Feb-22 22:36N 45°48' W 122°51'0 0.0
2018-Feb-22 22:30N 45°48' W 122°51'0 0.0
2018-Feb-22 22:00N 45°48' W 122°51'0 0.0
2018-Feb-20 19:13N 45°48' W 122°51'0 0.2
2018-Feb-20 19:00N 45°48' W 122°51'1 1.2
2018-Feb-20 18:30N 45°48' W 122°50'1 1.1
2018-Feb-20 18:00N 45°48' W 122°50'1 1.5
2018-Feb-20 17:30N 45°49' W 122°50'3 5.7
2018-Feb-20 17:01N 45°52' W 122°47'4 7.4
2018-Feb-20 16:30N 45°48' W 122°47'4 8.0
2018-Feb-20 16:00N 45°44' W 122°46'5 7.9
2018-Feb-20 15:26N 45°39' W 122°46'3 8.1
2018-Feb-20 15:00N 45°38' W 122°42'4 8.6
2018-Feb-20 14:30N 45°36' W 122°36'5 9.0
2018-Feb-20 14:00N 45°35' W 122°30'2 4.3
2018-Feb-20 13:28N 45°34' W 122°27'0 0.0
2018-Feb-20 08:35N 45°34' W 122°27'0 0.0
2018-Feb-20 08:31N 45°34' W 122°27'0 0.5
2018-Feb-20 08:00N 45°34' W 122°27'1 2.8
2018-Feb-20 07:29N 45°35' W 122°29'1 2.9
2018-Feb-20 07:00N 45°35' W 122°30'2 2.9
2018-Feb-20 06:28N 45°36' W 122°33'1 3.1
2018-Feb-20 06:00N 45°36' W 122°34'2 3.0
2018-Feb-20 05:30N 45°36' W 122°37'2 3.2
2018-Feb-20 05:00N 45°37' W 122°39'2 3.1
2018-Feb-20 04:30N 45°37' W 122°41'2 3.6
2018-Feb-20 04:00N 45°38' W 122°43'2 4.0
2018-Feb-20 03:30N 45°39' W 122°45'2 4.1
2018-Feb-20 03:00N 45°41' W 122°46'2 4.0
2018-Feb-20 02:30N 45°43' W 122°46'2 4.1
2018-Feb-20 02:00N 45°45' W 122°46'2 4.0
2018-Feb-20 01:30N 45°47' W 122°47'2 3.9
2018-Feb-20 01:00N 45°49' W 122°48'2 3.8
2018-Feb-20 00:30N 45°51' W 122°47'1 2.1
2018-Feb-20 00:00N 45°50' W 122°48'2 4.8
2018-Feb-19 23:30N 45°48' W 122°50'1 1.7
2018-Feb-19 23:00N 45°48' W 122°51'0 0.1
2018-Feb-19 22:30N 45°48' W 122°51'0 0.0
2018-Feb-18 03:20N 45°48' W 122°51'0 1.1
2018-Feb-18 03:01N 45°48' W 122°50'1 1.4
2018-Feb-18 02:30N 45°48' W 122°50'3 5.4
2018-Feb-18 02:01N 45°51' W 122°48'2 3.6
2018-Feb-18 01:30N 45°49' W 122°48'4 7.5
2018-Feb-18 01:00N 45°45' W 122°46'6 7.5
2018-Feb-18 00:11N 45°39' W 122°46'3 8.0
2018-Feb-17 23:48N 45°38' W 122°42'2 8.4
2018-Feb-17 23:30N 45°37' W 122°39'4 7.9
2018-Feb-17 22:59N 45°36' W 122°33'4 8.3
2018-Feb-17 22:30N 45°34' W 122°28'1 1.6
2018-Feb-17 22:00N 45°34' W 122°27'0 0.0
2018-Feb-17 17:38N 45°34' W 122°27'0 0.0
2018-Feb-17 17:30N 45°34' W 122°27'0 0.9
2018-Feb-17 17:00N 45°34' W 122°27'2 3.1
2018-Feb-17 16:30N 45°35' W 122°29'2 3.2
2018-Feb-17 16:00N 45°35' W 122°31'2 3.3
2018-Feb-17 15:31N 45°36' W 122°33'2 3.4
2018-Feb-17 15:00N 45°36' W 122°36'2 3.5
2018-Feb-17 14:31N 45°37' W 122°38'2 3.4
2018-Feb-17 14:00N 45°37' W 122°41'2 3.4
2018-Feb-17 13:31N 45°38' W 122°43'2 4.0
2018-Feb-17 12:59N 45°39' W 122°45'2 4.1
2018-Feb-17 12:30N 45°41' W 122°46'3 4.5
2018-Feb-17 11:56N 45°43' W 122°46'2 3.2
2018-Feb-17 11:20N 45°45' W 122°46'2 3.7
2018-Feb-17 10:53N 45°47' W 122°47'2 3.7
2018-Feb-17 10:24N 45°49' W 122°48'1 3.4
2018-Feb-17 10:01N 45°50' W 122°47'2 3.3
2018-Feb-17 09:30N 45°52' W 122°47'3 5.0
2018-Feb-17 09:00N 45°49' W 122°49'2 3.3
2018-Feb-17 08:30N 45°48' W 122°50'0 0.9
2018-Feb-17 08:01N 45°48' W 122°51'0 0.0
2018-Feb-17 07:31N 45°48' W 122°51'0 0.0
2018-Feb-17 00:03N 45°48' W 122°51'0 0.2
2018-Feb-17 00:00N 45°48' W 122°51'0 0.8
2018-Feb-16 23:29N 45°48' W 122°50'1 3.0
2018-Feb-16 23:00N 45°47' W 122°48'3 5.9
2018-Feb-16 22:30N 45°44' W 122°50'3 5.8
2018-Feb-16 22:00N 45°42' W 122°52'3 6.3
2018-Feb-16 21:30N 45°39' W 122°50'5 6.7
2018-Feb-16 20:44N 45°35' W 122°45'1 6.5
2018-Feb-16 20:31N 45°34' W 122°44'0 0.3
2018-Feb-16 20:01N 45°34' W 122°44'0 0.0
2018-Feb-16 15:36N 45°34' W 122°44'0 0.0
2018-Feb-16 15:31N 45°34' W 122°44'0 0.9
2018-Feb-16 15:00N 45°34' W 122°44'2 4.9
2018-Feb-16 14:30N 45°36' W 122°47'2 4.2
2018-Feb-16 14:00N 45°37' W 122°49'2 3.8
2018-Feb-16 13:30N 45°39' W 122°50'2 3.8
2018-Feb-16 13:00N 45°40' W 122°52'2 3.7
2018-Feb-16 12:30N 45°42' W 122°52'2 3.2
2018-Feb-16 11:47N 45°44' W 122°50'1 3.0
2018-Feb-16 11:30N 45°45' W 122°49'1 2.8
2018-Feb-16 11:00N 45°46' W 122°49'2 3.1
2018-Feb-16 10:30N 45°48' W 122°48'1 2.3
2018-Feb-16 10:00N 45°48' W 122°50'1 0.9
2018-Feb-16 09:03N 45°48' W 122°51'0 0.0
2018-Feb-16 09:00N 45°48' W 122°51'0 0.0
2018-Feb-16 00:50N 45°48' W 122°51'0 1.1
2018-Feb-16 00:25N 45°48' W 122°50'1 1.4
2018-Feb-16 00:00N 45°48' W 122°50'3 5.2
2018-Feb-15 23:30N 45°51' W 122°48'2 3.5
2018-Feb-15 23:00N 45°49' W 122°48'4 8.2
2018-Feb-15 22:30N 45°45' W 122°46'4 8.2
2018-Feb-15 22:00N 45°41' W 122°46'4 7.7
2018-Feb-15 21:30N 45°38' W 122°43'4 8.3
2018-Feb-15 21:00N 45°36' W 122°37'4 8.9
2018-Feb-15 20:30N 45°35' W 122°31'3 6.7
2018-Feb-15 20:00N 45°34' W 122°27'0 0.0
2018-Feb-15 19:31N 45°34' W 122°27'0 0.0
2018-Feb-15 14:59N 45°34' W 122°27'0 0.6
2018-Feb-15 14:30N 45°34' W 122°27'1 2.8
2018-Feb-15 14:00N 45°35' W 122°28'2 3.0
2018-Feb-15 13:30N 45°35' W 122°31'1 3.0
2018-Feb-15 13:00N 45°36' W 122°33'2 3.0
2018-Feb-15 12:30N 45°36' W 122°35'2 3.1
2018-Feb-15 12:00N 45°36' W 122°37'2 3.1
2018-Feb-15 11:30N 45°37' W 122°39'1 2.9
2018-Feb-15 11:00N 45°37' W 122°41'2 3.5
2018-Feb-15 10:30N 45°38' W 122°43'2 3.8
2018-Feb-15 10:01N 45°39' W 122°45'2 3.7
2018-Feb-15 09:30N 45°41' W 122°46'2 3.6
2018-Feb-15 09:00N 45°43' W 122°46'2 3.6
2018-Feb-15 08:31N 45°44' W 122°46'2 3.6
2018-Feb-15 08:00N 45°46' W 122°46'2 3.6
2018-Feb-15 07:31N 45°48' W 122°47'2 3.3
2018-Feb-15 07:00N 45°49' W 122°48'2 3.3
2018-Feb-15 06:30N 45°51' W 122°47'1 2.7
2018-Feb-15 06:00N 45°50' W 122°49'2 4.6
2018-Feb-15 05:30N 45°48' W 122°50'1 1.6
2018-Feb-15 05:01N 45°48' W 122°51'0 0.0
2018-Feb-15 04:31N 45°48' W 122°51'0 0.1
2018-Feb-15 04:00N 45°48' W 122°51'0 0.0
2018-Feb-14 23:06N 45°48' W 122°51'0 0.4
2018-Feb-14 23:00N 45°48' W 122°51'1 1.8
2018-Feb-14 22:30N 45°48' W 122°50'1 2.5
2018-Feb-14 22:00N 45°47' W 122°48'3 5.9
2018-Feb-14 21:30N 45°44' W 122°50'3 5.7
2018-Feb-14 21:00N 45°42' W 122°52'3 5.9
2018-Feb-14 20:30N 45°39' W 122°50'3 6.2
2018-Feb-14 20:00N 45°37' W 122°47'3 6.7
2018-Feb-14 19:30N 45°34' W 122°44'1 0.1
2018-Feb-14 13:54N 45°34' W 122°44'0 0.2
2018-Feb-14 13:30N 45°34' W 122°44'2 4.8
2018-Feb-14 13:00N 45°36' W 122°46'2 4.6
2018-Feb-14 12:31N 45°37' W 122°48'2 4.1
2018-Feb-14 12:00N 45°39' W 122°50'2 3.9
2018-Feb-14 11:28N 45°41' W 122°52'2 3.8
2018-Feb-14 11:00N 45°42' W 122°52'2 3.5
2018-Feb-14 10:31N 45°44' W 122°51'2 3.1
2018-Feb-14 10:00N 45°45' W 122°49'1 2.7
2018-Feb-14 09:30N 45°46' W 122°49'2 3.3
2018-Feb-14 09:00N 45°48' W 122°48'1 2.6
2018-Feb-14 08:31N 45°48' W 122°50'1 1.3
2018-Feb-14 08:01N 45°48' W 122°51'0 0.1
2018-Feb-14 07:31N 45°48' W 122°51'0 0.0
2018-Feb-14 07:00N 45°48' W 122°51'0 0.0
2018-Feb-14 06:30N 45°48' W 122°51'0 0.0
2018-Feb-14 06:01N 45°48' W 122°51'0 0.0
2018-Feb-14 05:31N 45°48' W 122°51'0 0.0
2018-Feb-14 05:01N 45°48' W 122°51'0 0.0
2018-Feb-13 22:55N 45°48' W 122°51'1 1.5
2018-Feb-13 22:30N 45°48' W 122°50'1 1.5
2018-Feb-13 21:54N 45°49' W 122°50'3 5.4
2018-Feb-13 21:19N 45°51' W 122°47'6 8.0
2018-Feb-13 20:37N 45°46' W 122°46'1 8.6
2018-Feb-13 20:30N 45°45' W 122°46'4 8.4
2018-Feb-13 20:00N 45°41' W 122°46'4 7.9
2018-Feb-13 19:30N 45°38' W 122°42'4 8.7
2018-Feb-13 19:00N 45°36' W 122°36'5 8.9
2018-Feb-13 18:30N 45°35' W 122°30'3 5.5
2018-Feb-13 18:00N 45°34' W 122°27'0 0.0
2018-Feb-13 17:30N 45°34' W 122°27'0 0.0
2018-Feb-13 13:17N 45°34' W 122°27'0 0.0
2018-Feb-13 13:01N 45°34' W 122°27'0 1.0
2018-Feb-13 12:31N 45°34' W 122°27'1 2.9
2018-Feb-13 12:00N 45°35' W 122°29'2 3.1
2018-Feb-13 11:30N 45°35' W 122°31'1 2.9
2018-Feb-13 11:00N 45°36' W 122°33'1 2.9
2018-Feb-13 10:31N 45°36' W 122°35'1 3.0
2018-Feb-13 10:01N 45°36' W 122°37'1 3.0
2018-Feb-13 09:31N 45°37' W 122°39'1 2.8
2018-Feb-13 09:00N 45°37' W 122°41'2 3.5
2018-Feb-13 08:31N 45°38' W 122°43'2 3.6
2018-Feb-13 08:01N 45°39' W 122°45'2 3.7
2018-Feb-13 07:31N 45°41' W 122°46'2 3.5
2018-Feb-13 06:59N 45°43' W 122°46'2 3.6
2018-Feb-13 06:30N 45°45' W 122°46'2 3.6
2018-Feb-13 05:49N 45°47' W 122°47'1 3.6
2018-Feb-13 05:24N 45°48' W 122°47'1 3.4
2018-Feb-13 05:00N 45°50' W 122°48'2 3.5
2018-Feb-13 04:30N 45°51' W 122°47'2 4.0
2018-Feb-13 04:00N 45°50' W 122°49'2 4.0
2018-Feb-13 03:30N 45°48' W 122°50'1 1.1
2018-Feb-13 03:00N 45°48' W 122°51'  
Track history (hours):
 
Tides and Currents Weather Stations Pressure Air Temp Water Temp Dewpoint Dewpoint Depression Visibility Wind Speed Wind Dir Waves Ship Positions

Nancy Ann

Owner: Mark Bernert Tugboat Company, St. Helens, OR. More information available from US FCC via Universal Licensing System and Coast Guard Vessel Documentation Center.

Last reported at 2018-Feb-22 22:36 UTC. Time now 2018-Feb-23 03:11 UTC.
Position N 45°48' W 122°51'.

Type: Tug. MMSI: 338205428.

Date/timePositionNaut miles runAvg speedWind from/ knotsBaromVisibWave heightAir tempDewpointWater temp
2018-Feb-22 22:36N 45°48' W 122°51'0 0.0
2018-Feb-22 22:30N 45°48' W 122°51'0 0.0
2018-Feb-22 22:00N 45°48' W 122°51'0 0.0
2018-Feb-20 19:13N 45°48' W 122°51'0 0.2
2018-Feb-20 19:00N 45°48' W 122°51'1 1.2
2018-Feb-20 18:30N 45°48' W 122°50'1 1.1
2018-Feb-20 18:00N 45°48' W 122°50'1 1.5
2018-Feb-20 17:30N 45°49' W 122°50'3 5.7
2018-Feb-20 17:01N 45°52' W 122°47'4 7.4
2018-Feb-20 16:30N 45°48' W 122°47'4 8.0
2018-Feb-20 16:00N 45°44' W 122°46'5 7.9
2018-Feb-20 15:26N 45°39' W 122°46'3 8.1
2018-Feb-20 15:00N 45°38' W 122°42'4 8.6
2018-Feb-20 14:30N 45°36' W 122°36'5 9.0
2018-Feb-20 14:00N 45°35' W 122°30'2 4.3
2018-Feb-20 13:28N 45°34' W 122°27'0 0.0
2018-Feb-20 08:35N 45°34' W 122°27'0 0.0
2018-Feb-20 08:31N 45°34' W 122°27'0 0.5
2018-Feb-20 08:00N 45°34' W 122°27'1 2.8
2018-Feb-20 07:29N 45°35' W 122°29'1 2.9
2018-Feb-20 07:00N 45°35' W 122°30'2 2.9
2018-Feb-20 06:28N 45°36' W 122°33'1 3.1
2018-Feb-20 06:00N 45°36' W 122°34'2 3.0
2018-Feb-20 05:30N 45°36' W 122°37'2 3.2
2018-Feb-20 05:00N 45°37' W 122°39'2 3.1
2018-Feb-20 04:30N 45°37' W 122°41'2 3.6
2018-Feb-20 04:00N 45°38' W 122°43'2 4.0
2018-Feb-20 03:30N 45°39' W 122°45'2 4.1
2018-Feb-20 03:00N 45°41' W 122°46'2 4.0
2018-Feb-20 02:30N 45°43' W 122°46'2 4.1
2018-Feb-20 02:00N 45°45' W 122°46'2 4.0
2018-Feb-20 01:30N 45°47' W 122°47'2 3.9
2018-Feb-20 01:00N 45°49' W 122°48'2 3.8
2018-Feb-20 00:30N 45°51' W 122°47'1 2.1
2018-Feb-20 00:00N 45°50' W 122°48'2 4.8
2018-Feb-19 23:30N 45°48' W 122°50'1 1.7
2018-Feb-19 23:00N 45°48' W 122°51'0 0.1
2018-Feb-19 22:30N 45°48' W 122°51'0 0.0
2018-Feb-18 03:20N 45°48' W 122°51'0 1.1
2018-Feb-18 03:01N 45°48' W 122°50'1 1.4
2018-Feb-18 02:30N 45°48' W 122°50'3 5.4
2018-Feb-18 02:01N 45°51' W 122°48'2 3.6
2018-Feb-18 01:30N 45°49' W 122°48'4 7.5
2018-Feb-18 01:00N 45°45' W 122°46'6 7.5
2018-Feb-18 00:11N 45°39' W 122°46'3 8.0
2018-Feb-17 23:48N 45°38' W 122°42'2 8.4
2018-Feb-17 23:30N 45°37' W 122°39'4 7.9
2018-Feb-17 22:59N 45°36' W 122°33'4 8.3
2018-Feb-17 22:30N 45°34' W 122°28'1 1.6
2018-Feb-17 22:00N 45°34' W 122°27'0 0.0
2018-Feb-17 17:38N 45°34' W 122°27'0 0.0
2018-Feb-17 17:30N 45°34' W 122°27'0 0.9
2018-Feb-17 17:00N 45°34' W 122°27'2 3.1
2018-Feb-17 16:30N 45°35' W 122°29'2 3.2
2018-Feb-17 16:00N 45°35' W 122°31'2 3.3
2018-Feb-17 15:31N 45°36' W 122°33'2 3.4
2018-Feb-17 15:00N 45°36' W 122°36'2 3.5
2018-Feb-17 14:31N 45°37' W 122°38'2 3.4
2018-Feb-17 14:00N 45°37' W 122°41'2 3.4
2018-Feb-17 13:31N 45°38' W 122°43'2 4.0
2018-Feb-17 12:59N 45°39' W 122°45'2 4.1
2018-Feb-17 12:30N 45°41' W 122°46'3 4.5
2018-Feb-17 11:56N 45°43' W 122°46'2 3.2
2018-Feb-17 11:20N 45°45' W 122°46'2 3.7
2018-Feb-17 10:53N 45°47' W 122°47'2 3.7
2018-Feb-17 10:24N 45°49' W 122°48'1 3.4
2018-Feb-17 10:01N 45°50' W 122°47'2 3.3
2018-Feb-17 09:30N 45°52' W 122°47'3 5.0
2018-Feb-17 09:00N 45°49' W 122°49'2 3.3
2018-Feb-17 08:30N 45°48' W 122°50'0 0.9
2018-Feb-17 08:01N 45°48' W 122°51'0 0.0
2018-Feb-17 07:31N 45°48' W 122°51'0 0.0
2018-Feb-17 00:03N 45°48' W 122°51'0 0.2
2018-Feb-17 00:00N 45°48' W 122°51'0 0.8
2018-Feb-16 23:29N 45°48' W 122°50'1 3.0
2018-Feb-16 23:00N 45°47' W 122°48'3 5.9
2018-Feb-16 22:30N 45°44' W 122°50'3 5.8
2018-Feb-16 22:00N 45°42' W 122°52'3 6.3
2018-Feb-16 21:30N 45°39' W 122°50'5 6.7
2018-Feb-16 20:44N 45°35' W 122°45'1 6.5
2018-Feb-16 20:31N 45°34' W 122°44'0 0.3
2018-Feb-16 20:01N 45°34' W 122°44'0 0.0
2018-Feb-16 15:36N 45°34' W 122°44'0 0.0
2018-Feb-16 15:31N 45°34' W 122°44'0 0.9
2018-Feb-16 15:00N 45°34' W 122°44'2 4.9
2018-Feb-16 14:30N 45°36' W 122°47'2 4.2
2018-Feb-16 14:00N 45°37' W 122°49'2 3.8
2018-Feb-16 13:30N 45°39' W 122°50'2 3.8
2018-Feb-16 13:00N 45°40' W 122°52'2 3.7
2018-Feb-16 12:30N 45°42' W 122°52'2 3.2
2018-Feb-16 11:47N 45°44' W 122°50'1 3.0
2018-Feb-16 11:30N 45°45' W 122°49'1 2.8
2018-Feb-16 11:00N 45°46' W 122°49'2 3.1
2018-Feb-16 10:30N 45°48' W 122°48'1 2.3
2018-Feb-16 10:00N 45°48' W 122°50'1 0.9
2018-Feb-16 09:03N 45°48' W 122°51'0 0.0
2018-Feb-16 09:00N 45°48' W 122°51'0 0.0
2018-Feb-16 00:50N 45°48' W 122°51'0 1.1
2018-Feb-16 00:25N 45°48' W 122°50'1 1.4
2018-Feb-16 00:00N 45°48' W 122°50'3 5.2
2018-Feb-15 23:30N 45°51' W 122°48'2 3.5
2018-Feb-15 23:00N 45°49' W 122°48'4 8.2
2018-Feb-15 22:30N 45°45' W 122°46'4 8.2
2018-Feb-15 22:00N 45°41' W 122°46'4 7.7
2018-Feb-15 21:30N 45°38' W 122°43'4 8.3
2018-Feb-15 21:00N 45°36' W 122°37'4 8.9
2018-Feb-15 20:30N 45°35' W 122°31'3 6.7
2018-Feb-15 20:00N 45°34' W 122°27'0 0.0
2018-Feb-15 19:31N 45°34' W 122°27'0 0.0
2018-Feb-15 14:59N 45°34' W 122°27'0 0.6
2018-Feb-15 14:30N 45°34' W 122°27'1 2.8
2018-Feb-15 14:00N 45°35' W 122°28'2 3.0
2018-Feb-15 13:30N 45°35' W 122°31'1 3.0
2018-Feb-15 13:00N 45°36' W 122°33'2 3.0
2018-Feb-15 12:30N 45°36' W 122°35'2 3.1
2018-Feb-15 12:00N 45°36' W 122°37'2 3.1
2018-Feb-15 11:30N 45°37' W 122°39'1 2.9
2018-Feb-15 11:00N 45°37' W 122°41'2 3.5
2018-Feb-15 10:30N 45°38' W 122°43'2 3.8
2018-Feb-15 10:01N 45°39' W 122°45'2 3.7
2018-Feb-15 09:30N 45°41' W 122°46'2 3.6
2018-Feb-15 09:00N 45°43' W 122°46'2 3.6
2018-Feb-15 08:31N 45°44' W 122°46'2 3.6
2018-Feb-15 08:00N 45°46' W 122°46'2 3.6
2018-Feb-15 07:31N 45°48' W 122°47'2 3.3
2018-Feb-15 07:00N 45°49' W 122°48'2 3.3
2018-Feb-15 06:30N 45°51' W 122°47'1 2.7
2018-Feb-15 06:00N 45°50' W 122°49'2 4.6
2018-Feb-15 05:30N 45°48' W 122°50'1 1.6
2018-Feb-15 05:01N 45°48' W 122°51'0 0.0
2018-Feb-15 04:31N 45°48' W 122°51'0 0.1
2018-Feb-15 04:00N 45°48' W 122°51'0 0.0
2018-Feb-14 23:06N 45°48' W 122°51'0 0.4
2018-Feb-14 23:00N 45°48' W 122°51'1 1.8
2018-Feb-14 22:30N 45°48' W 122°50'1 2.5
2018-Feb-14 22:00N 45°47' W 122°48'3 5.9
2018-Feb-14 21:30N 45°44' W 122°50'3 5.7
2018-Feb-14 21:00N 45°42' W 122°52'3 5.9
2018-Feb-14 20:30N 45°39' W 122°50'3 6.2
2018-Feb-14 20:00N 45°37' W 122°47'3 6.7
2018-Feb-14 19:30N 45°34' W 122°44'1 0.1
2018-Feb-14 13:54N 45°34' W 122°44'0 0.2
2018-Feb-14 13:30N 45°34' W 122°44'2 4.8
2018-Feb-14 13:00N 45°36' W 122°46'2 4.6
2018-Feb-14 12:31N 45°37' W 122°48'2 4.1
2018-Feb-14 12:00N 45°39' W 122°50'2 3.9
2018-Feb-14 11:28N 45°41' W 122°52'2 3.8
2018-Feb-14 11:00N 45°42' W 122°52'2 3.5
2018-Feb-14 10:31N 45°44' W 122°51'2 3.1
2018-Feb-14 10:00N 45°45' W 122°49'1 2.7
2018-Feb-14 09:30N 45°46' W 122°49'2 3.3
2018-Feb-14 09:00N 45°48' W 122°48'1 2.6
2018-Feb-14 08:31N 45°48' W 122°50'1 1.3
2018-Feb-14 08:01N 45°48' W 122°51'0 0.1
2018-Feb-14 07:31N 45°48' W 122°51'0 0.0
2018-Feb-14 07:00N 45°48' W 122°51'0 0.0
2018-Feb-14 06:30N 45°48' W 122°51'0 0.0
2018-Feb-14 06:01N 45°48' W 122°51'0 0.0
2018-Feb-14 05:31N 45°48' W 122°51'0 0.0
2018-Feb-14 05:01N 45°48' W 122°51'0 0.0
2018-Feb-13 22:55N 45°48' W 122°51'1 1.5
2018-Feb-13 22:30N 45°48' W 122°50'1 1.5
2018-Feb-13 21:54N 45°49' W 122°50'3 5.4
2018-Feb-13 21:19N 45°51' W 122°47'6 8.0
2018-Feb-13 20:37N 45°46' W 122°46'1 8.6
2018-Feb-13 20:30N 45°45' W 122°46'4 8.4
2018-Feb-13 20:00N 45°41' W 122°46'4 7.9
2018-Feb-13 19:30N 45°38' W 122°42'4 8.7
2018-Feb-13 19:00N 45°36' W 122°36'5 8.9
2018-Feb-13 18:30N 45°35' W 122°30'3 5.5
2018-Feb-13 18:00N 45°34' W 122°27'0 0.0
2018-Feb-13 17:30N 45°34' W 122°27'0 0.0
2018-Feb-13 13:17N 45°34' W 122°27'0 0.0
2018-Feb-13 13:01N 45°34' W 122°27'0 1.0
2018-Feb-13 12:31N 45°34' W 122°27'1 2.9
2018-Feb-13 12:00N 45°35' W 122°29'2 3.1
2018-Feb-13 11:30N 45°35' W 122°31'1 2.9
2018-Feb-13 11:00N 45°36' W 122°33'1 2.9
2018-Feb-13 10:31N 45°36' W 122°35'1 3.0
2018-Feb-13 10:01N 45°36' W 122°37'1 3.0
2018-Feb-13 09:31N 45°37' W 122°39'1 2.8
2018-Feb-13 09:00N 45°37' W 122°41'2 3.5
2018-Feb-13 08:31N 45°38' W 122°43'2 3.6
2018-Feb-13 08:01N 45°39' W 122°45'2 3.7
2018-Feb-13 07:31N 45°41' W 122°46'2 3.5
2018-Feb-13 06:59N 45°43' W 122°46'2 3.6
2018-Feb-13 06:30N 45°45' W 122°46'2 3.6
2018-Feb-13 05:49N 45°47' W 122°47'1 3.6
2018-Feb-13 05:24N 45°48' W 122°47'1 3.4
2018-Feb-13 05:00N 45°50' W 122°48'2 3.5
2018-Feb-13 04:30N 45°51' W 122°47'2 4.0
2018-Feb-13 04:00N 45°50' W 122°49'2 4.0
2018-Feb-13 03:30N 45°48' W 122°50'1 1.1
2018-Feb-13 03:00N 45°48' W 122°51'  

Dump ship's entire track history